createdAt,value
2018-05-06T00:02:56.567Z,14.00
2018-05-06T00:07:30.513Z,13.80
2018-05-06T00:12:03.697Z,13.80
2018-05-06T00:16:37.621Z,14.00
2018-05-06T00:21:11.576Z,14.10
2018-05-06T00:25:44.790Z,14.00
2018-05-06T00:30:18.019Z,14.10
2018-05-06T00:34:51.193Z,14.10
2018-05-06T00:39:24.374Z,14.20
2018-05-06T00:43:58.334Z,14.40
2018-05-06T00:48:31.490Z,14.40
2018-05-06T00:53:04.670Z,14.50
2018-05-06T00:57:37.850Z,14.40
2018-05-06T01:02:11.005Z,14.40
2018-05-06T01:06:44.184Z,14.30
2018-05-06T01:11:17.381Z,14.30
2018-05-06T01:15:50.539Z,14.20
2018-05-06T01:20:24.495Z,14.00
2018-05-06T01:24:57.686Z,13.90
2018-05-06T01:29:30.882Z,13.70
2018-05-06T01:34:04.857Z,13.60
2018-05-06T01:38:38.015Z,13.50
2018-05-06T01:43:11.974Z,13.80
2018-05-06T01:47:45.138Z,13.80
2018-05-06T01:52:19.135Z,13.80
2018-05-06T01:56:52.690Z,13.80
2018-05-06T02:01:26.655Z,14.00
2018-05-06T02:05:59.833Z,14.00
2018-05-06T02:10:33.070Z,14.20
2018-05-06T02:15:06.226Z,14.20
2018-05-06T02:19:40.462Z,13.80
2018-05-06T02:24:14.430Z,13.70
2018-05-06T02:28:47.585Z,13.60
2018-05-06T02:33:21.537Z,13.40
2018-05-06T02:37:54.733Z,13.30
2018-05-06T02:42:27.925Z,13.40
2018-05-06T02:47:01.123Z,13.40
2018-05-06T02:51:35.082Z,13.20
2018-05-06T02:56:08.267Z,13.10
2018-05-06T03:00:42.217Z,12.70
2018-05-06T03:05:15.404Z,12.60
2018-05-06T03:09:48.571Z,12.50
2018-05-06T03:14:21.753Z,12.30
2018-05-06T03:18:54.943Z,12.10
2018-05-06T03:23:28.122Z,12.00
2018-05-06T03:28:02.066Z,11.80
2018-05-06T03:32:35.254Z,11.70
2018-05-06T03:37:09.180Z,11.60
2018-05-06T03:41:42.368Z,11.50
2018-05-06T03:46:16.320Z,11.30
2018-05-06T03:50:49.475Z,11.30
2018-05-06T03:55:22.654Z,11.20
2018-05-06T04:00:07.624Z,11.20
2018-05-06T04:04:40.926Z,11.10
2018-05-06T04:09:14.984Z,11.10
2018-05-06T04:13:48.551Z,11.20
2018-05-06T04:18:22.548Z,11.50
2018-05-06T04:22:55.730Z,11.40
2018-05-06T04:27:28.890Z,11.40
2018-05-06T04:32:02.834Z,11.20
2018-05-06T04:36:36.023Z,11.20
2018-05-06T04:41:09.238Z,11.30
2018-05-06T04:45:42.428Z,11.40
2018-05-06T04:50:16.554Z,11.70
2018-05-06T04:54:50.563Z,11.90
2018-05-06T04:59:23.818Z,11.90
2018-05-06T05:03:57.010Z,12.10
2018-05-06T05:08:30.167Z,12.40
2018-05-06T05:13:03.370Z,12.60
2018-05-06T05:17:36.666Z,12.80
2018-05-06T05:22:09.826Z,13.10
2018-05-06T05:26:43.819Z,13.60
2018-05-06T05:31:17.574Z,13.50
2018-05-06T05:35:50.777Z,13.90
2018-05-06T05:40:24.730Z,14.30
2018-05-06T05:44:57.914Z,14.30
2018-05-06T05:49:31.106Z,14.50
2018-05-06T05:54:05.067Z,14.90
2018-05-06T05:58:38.254Z,14.80
2018-05-06T06:03:11.434Z,15.10
2018-05-06T06:07:45.406Z,15.50
2018-05-06T06:12:18.574Z,15.40
2018-05-06T06:16:52.529Z,15.90
2018-05-06T06:21:25.713Z,15.80
2018-05-06T06:25:59.663Z,16.30
2018-05-06T06:30:32.826Z,16.30
2018-05-06T06:35:06.779Z,16.80
2018-05-06T06:39:39.973Z,16.80
2018-05-06T06:44:13.942Z,17.10
2018-05-06T06:48:47.129Z,17.10
2018-05-06T06:53:20.310Z,17.40
2018-05-06T06:57:54.266Z,17.90
2018-05-06T07:02:27.450Z,17.90
2018-05-06T07:07:00.683Z,18.10
2018-05-06T07:11:33.873Z,18.30
2018-05-06T07:16:07.078Z,18.50
2018-05-06T07:20:40.402Z,18.80
2018-05-06T07:25:13.610Z,19.20
2018-05-06T07:29:46.795Z,19.40
2018-05-06T07:34:19.990Z,19.80
2018-05-06T07:38:53.934Z,20.30
2018-05-06T07:43:27.126Z,20.20
2018-05-06T07:48:01.078Z,20.90
2018-05-06T07:52:34.643Z,20.90
2018-05-06T07:57:08.605Z,21.40
2018-05-06T08:01:41.764Z,21.30
2018-05-06T08:06:14.951Z,21.60
2018-05-06T08:10:48.185Z,22.40
2018-05-06T08:15:21.362Z,23.40
2018-05-06T08:19:54.990Z,24.90
2018-05-06T08:24:28.938Z,26.60
2018-05-06T08:29:02.959Z,27.70
2018-05-06T08:33:36.886Z,28.50
2018-05-06T08:38:10.834Z,29.00
2018-05-06T08:42:44.029Z,28.90
2018-05-06T08:47:17.191Z,29.40
2018-05-06T08:51:51.826Z,29.70
2018-05-06T08:56:25.230Z,29.30
2018-05-06T09:00:58.753Z,29.70
2018-05-06T09:05:32.092Z,29.80
2018-05-06T09:10:06.050Z,30.60
2018-05-06T09:14:39.274Z,30.50
2018-05-06T09:19:12.461Z,30.20
2018-05-06T09:23:46.209Z,30.30
2018-05-06T09:28:20.934Z,30.50
2018-05-06T09:32:54.118Z,30.50
2018-05-06T09:37:27.561Z,30.10
2018-05-06T09:42:00.722Z,30.00
2018-05-06T09:46:34.674Z,31.70
2018-05-06T09:51:07.853Z,31.50
2018-05-06T09:55:41.926Z,32.90
2018-05-06T10:00:15.110Z,32.70
2018-05-06T10:04:48.340Z,32.30
2018-05-06T10:09:21.786Z,31.70
2018-05-06T10:13:56.477Z,32.20
2018-05-06T10:18:29.662Z,32.20
2018-05-06T10:23:03.179Z,32.20
2018-05-06T10:27:36.590Z,31.60
2018-05-06T10:32:09.776Z,32.00
2018-05-06T10:36:43.725Z,32.40
2018-05-06T10:41:16.907Z,32.30
2018-05-06T10:45:50.160Z,32.10
2018-05-06T10:50:23.391Z,32.70
2018-05-06T10:54:56.614Z,32.60
2018-05-06T10:59:29.984Z,32.60
2018-05-06T11:04:03.334Z,32.90
2018-05-06T11:08:37.175Z,32.70
2018-05-06T11:13:11.478Z,30.80
2018-05-06T11:17:44.665Z,30.70
2018-05-06T11:22:17.853Z,30.60
2018-05-06T11:26:51.159Z,31.40
2018-05-06T11:31:24.490Z,32.00
2018-05-06T11:35:57.674Z,32.30
2018-05-06T11:40:30.875Z,32.60
2018-05-06T11:45:04.081Z,32.80
2018-05-06T11:49:37.266Z,33.40
2018-05-06T11:54:11.215Z,31.10
2018-05-06T11:58:44.397Z,31.00
2018-05-06T12:03:18.357Z,30.90
2018-05-06T12:07:51.515Z,30.90
2018-05-06T12:12:24.706Z,31.60
2018-05-06T12:16:57.919Z,32.00
2018-05-06T12:21:31.283Z,31.60
2018-05-06T12:26:04.465Z,30.50
2018-05-06T12:30:38.429Z,30.70
2018-05-06T12:35:11.636Z,30.60
2018-05-06T12:39:44.818Z,30.70
2018-05-06T12:44:18.002Z,31.60
2018-05-06T12:48:51.951Z,32.50
2018-05-06T12:53:25.246Z,32.50
2018-05-06T12:57:58.435Z,33.10
2018-05-06T13:02:32.377Z,33.50
2018-05-06T13:07:05.570Z,33.40
2018-05-06T13:11:39.503Z,32.90
2018-05-06T13:16:12.689Z,32.80
2018-05-06T13:20:46.618Z,32.00
2018-05-06T13:25:20.617Z,31.70
2018-05-06T13:29:53.817Z,31.60
2018-05-06T13:34:27.014Z,30.80
2018-05-06T13:39:00.217Z,30.30
2018-05-06T13:43:34.669Z,29.80
2018-05-06T13:48:08.111Z,29.30
2018-05-06T13:52:42.136Z,28.40
2018-05-06T13:57:15.683Z,28.30
2018-05-06T14:01:49.246Z,28.40
2018-05-06T14:06:22.471Z,28.30
2018-05-06T14:10:55.885Z,28.10
2018-05-06T14:15:30.323Z,27.80
2018-05-06T14:20:04.878Z,27.70
2018-05-06T14:24:38.826Z,27.50
2018-05-06T14:29:12.012Z,27.40
2018-05-06T14:33:45.226Z,27.50
2018-05-06T14:38:18.605Z,27.50
2018-05-06T14:42:51.829Z,27.60
2018-05-06T14:47:36.967Z,27.30
2018-05-06T14:52:10.451Z,27.20
2018-05-06T14:56:43.711Z,27.30
2018-05-06T15:01:17.152Z,27.40
2018-05-06T15:05:50.341Z,27.50
2018-05-06T15:10:24.408Z,27.10
2018-05-06T15:14:57.495Z,27.10
2018-05-06T15:19:30.708Z,27.00
2018-05-06T15:24:04.291Z,27.00
2018-05-06T15:28:37.489Z,27.00
2018-05-06T15:33:10.677Z,26.90
2018-05-06T15:37:43.919Z,26.70
2018-05-06T15:42:17.878Z,26.60
2018-05-06T15:46:51.047Z,26.50
2018-05-06T15:51:25.026Z,26.30
2018-05-06T15:55:58.185Z,26.30
2018-05-06T16:00:32.142Z,26.40
2018-05-06T16:05:05.321Z,26.30
2018-05-06T16:09:39.265Z,26.40
2018-05-06T16:14:13.170Z,26.30
2018-05-06T16:18:46.363Z,26.20
2018-05-06T16:23:20.310Z,25.90
2018-05-06T16:27:53.484Z,25.80
2018-05-06T16:32:26.702Z,25.80
2018-05-06T16:37:00.967Z,25.90
2018-05-06T16:41:34.153Z,25.80
2018-05-06T16:46:07.344Z,25.90
2018-05-06T16:50:41.306Z,25.70
2018-05-06T16:55:14.470Z,25.60
2018-05-06T16:59:48.476Z,25.30
2018-05-06T17:04:21.661Z,25.20
2018-05-06T17:08:54.859Z,25.20
2018-05-06T17:13:28.062Z,25.10
2018-05-06T17:18:01.268Z,25.10
2018-05-06T17:22:34.473Z,25.10
2018-05-06T17:27:07.770Z,24.80
2018-05-06T17:31:41.002Z,24.80
2018-05-06T17:36:14.166Z,24.70
2018-05-06T17:40:49.619Z,24.70
2018-05-06T17:45:23.125Z,24.50
2018-05-06T17:49:57.179Z,24.30
2018-05-06T17:54:31.076Z,24.20
2018-05-06T17:59:05.266Z,24.10
2018-05-06T18:03:38.484Z,24.00
2018-05-06T18:08:11.661Z,23.90
2018-05-06T18:12:44.855Z,23.90
2018-05-06T18:17:18.042Z,23.70
2018-05-06T18:21:51.219Z,23.60
2018-05-06T18:26:24.802Z,23.40
2018-05-06T18:30:59.494Z,23.10
2018-05-06T18:35:33.448Z,23.00
2018-05-06T18:40:06.626Z,23.00
2018-05-06T18:44:40.591Z,22.70
2018-05-06T18:49:13.791Z,22.70
2018-05-06T18:53:46.978Z,22.50
2018-05-06T18:58:20.191Z,22.40
2018-05-06T19:02:53.378Z,22.30
2018-05-06T19:07:27.387Z,21.90
2018-05-06T19:12:00.606Z,21.90
2018-05-06T19:16:34.603Z,21.60
2018-05-06T19:21:08.568Z,21.40
2018-05-06T19:25:42.643Z,21.20
2018-05-06T19:30:15.838Z,21.20
2018-05-06T19:34:49.008Z,21.10
2018-05-06T19:39:22.984Z,20.50
2018-05-06T19:43:57.176Z,20.40
2018-05-06T19:48:30.387Z,20.20
2018-05-06T19:53:03.574Z,19.80
2018-05-06T19:57:36.866Z,19.50
2018-05-06T20:02:10.827Z,19.00
2018-05-06T20:06:44.015Z,18.80
2018-05-06T20:11:17.316Z,18.60
2018-05-06T20:15:50.661Z,18.40
2018-05-06T20:20:23.857Z,18.00
2018-05-06T20:24:57.539Z,17.80
2018-05-06T20:29:31.513Z,17.40
2018-05-06T20:34:04.787Z,17.30
2018-05-06T20:38:38.827Z,17.00
2018-05-06T20:43:11.994Z,16.90
2018-05-06T20:47:45.178Z,16.80
2018-05-06T20:52:18.312Z,16.60
2018-05-06T20:56:52.302Z,16.30
2018-05-06T21:01:25.538Z,16.20
2018-05-06T21:05:59.477Z,15.90
2018-05-06T21:10:33.542Z,15.80
2018-05-06T21:15:06.649Z,15.70
2018-05-06T21:19:39.781Z,15.70
2018-05-06T21:24:12.946Z,15.50
2018-05-06T21:28:46.194Z,15.20
2018-05-06T21:33:19.392Z,15.00
2018-05-06T21:37:52.570Z,14.90
2018-05-06T21:42:25.718Z,14.80
2018-05-06T21:46:58.869Z,14.70
2018-05-06T21:51:32.796Z,14.50
2018-05-06T21:56:05.946Z,14.40
2018-05-06T22:00:39.121Z,14.20
2018-05-06T22:05:13.115Z,14.10
2018-05-06T22:09:46.253Z,14.00
2018-05-06T22:14:19.413Z,13.90
2018-05-06T22:18:53.336Z,13.90
2018-05-06T22:23:27.264Z,13.80
2018-05-06T22:28:01.172Z,13.70
2018-05-06T22:32:34.342Z,13.70
2018-05-06T22:37:07.500Z,13.60
2018-05-06T22:41:41.453Z,13.50
2018-05-06T22:46:14.719Z,13.40
2018-05-06T22:50:48.626Z,13.30
2018-05-06T22:55:21.791Z,13.20
2018-05-06T22:59:54.953Z,13.30
2018-05-06T23:04:28.105Z,13.20
2018-05-06T23:09:01.267Z,13.10
2018-05-06T23:13:34.421Z,13.00
2018-05-06T23:18:07.574Z,12.90
2018-05-06T23:22:41.528Z,12.80
2018-05-06T23:27:14.673Z,12.70
2018-05-06T23:31:47.829Z,12.70
2018-05-06T23:36:20.986Z,12.70
2018-05-06T23:40:54.165Z,12.70
2018-05-06T23:45:27.293Z,12.60
2018-05-06T23:50:00.453Z,12.50
2018-05-06T23:54:33.650Z,12.40
2018-05-06T23:59:07.569Z,12.40
